createdAt,value
2022-09-24T00:01:20.512Z,97957.81
2022-09-24T00:03:54.636Z,97952.53
2022-09-24T00:06:21.159Z,97953.22
2022-09-24T00:08:48.678Z,97956.41
2022-09-24T00:11:15.056Z,97959.03
2022-09-24T00:13:41.468Z,97964.19
2022-09-24T00:16:08.602Z,97960.63
2022-09-24T00:18:34.963Z,97961.75
2022-09-24T00:21:01.286Z,97945.06
2022-09-24T00:23:27.624Z,97945.13
2022-09-24T00:26:12.727Z,97947.16
2022-09-24T00:28:39.096Z,97945.06
2022-09-24T00:31:06.943Z,97943.13
2022-09-24T00:33:34.376Z,97951.09
2022-09-24T00:36:04.584Z,97943.44
2022-09-24T00:38:31.877Z,97940.66
2022-09-24T00:40:59.282Z,97943.47
2022-09-24T00:43:34.105Z,97936.19
2022-09-24T00:46:07.325Z,97934.97
2022-09-24T00:48:34.207Z,97933.41
2022-09-24T00:51:01.460Z,97930.22
2022-09-24T00:53:31.901Z,97926.25
2022-09-24T00:55:58.220Z,97927.78
2022-09-24T00:58:24.555Z,97920.25
2022-09-24T01:00:52.074Z,97919.22
2022-09-24T01:03:22.962Z,97924.97
2022-09-24T01:05:49.292Z,97920.63
2022-09-24T01:08:16.159Z,97921.44
2022-09-24T01:11:01.737Z,97913.28
2022-09-24T01:13:31.068Z,97916.34
2022-09-24T01:15:59.802Z,97912.75
2022-09-24T01:18:30.491Z,97913.66
2022-09-24T01:21:25.378Z,97912.59
2022-09-24T01:24:01.683Z,97918.16
2022-09-24T01:26:38.406Z,97911.84
2022-09-24T01:29:21.587Z,97907.66
2022-09-24T01:31:50.268Z,97906.38
2022-09-24T01:34:19.386Z,97910.00
2022-09-24T01:36:45.706Z,97912.44
2022-09-24T01:39:14.094Z,97912.25
2022-09-24T01:41:42.258Z,97909.38
2022-09-24T01:44:08.631Z,97910.19
2022-09-24T01:46:38.027Z,97911.91
2022-09-24T01:49:06.192Z,97913.78
2022-09-24T01:51:38.110Z,97911.69
2022-09-24T01:54:09.739Z,97910.94
2022-09-24T01:56:36.176Z,97908.47
2022-09-24T01:59:07.081Z,97906.38
2022-09-24T02:01:45.225Z,97899.44
2022-09-24T02:04:16.675Z,97895.47
2022-09-24T02:06:44.687Z,97901.28
2022-09-24T02:09:29.959Z,97896.22
2022-09-24T02:11:56.795Z,97894.56
2022-09-24T02:14:23.548Z,97887.81
2022-09-24T02:16:50.598Z,97886.88
2022-09-24T02:19:17.672Z,97886.09
2022-09-24T02:21:44.004Z,97894.50
2022-09-24T02:24:23.932Z,97899.81
2022-09-24T02:26:50.796Z,97899.03
2022-09-24T02:29:18.480Z,97901.00
2022-09-24T02:31:46.220Z,97894.13
2022-09-24T02:34:22.378Z,97890.78
2022-09-24T02:36:51.505Z,97888.03
2022-09-24T02:39:18.071Z,97892.16
2022-09-24T02:41:47.742Z,97880.75
2022-09-24T02:44:17.014Z,97889.16
2022-09-24T02:46:43.848Z,97887.22
2022-09-24T02:49:10.310Z,97882.94
2022-09-24T02:51:36.640Z,97877.91
2022-09-24T02:54:03.583Z,97881.81
2022-09-24T02:56:29.915Z,97877.06
2022-09-24T02:58:56.287Z,97878.38
2022-09-24T03:01:23.446Z,97863.63
2022-09-24T03:03:49.899Z,97868.00
2022-09-24T03:06:16.229Z,97871.66
2022-09-24T03:08:42.644Z,97865.09
2022-09-24T03:11:12.181Z,97868.91
2022-09-24T03:13:41.490Z,97858.47
2022-09-24T03:16:07.860Z,97859.94
2022-09-24T03:18:34.487Z,97861.44
2022-09-24T03:21:04.835Z,97855.56
2022-09-24T03:23:31.188Z,97858.53
2022-09-24T03:25:58.844Z,97857.81
2022-09-24T03:28:25.492Z,97854.81
2022-09-24T03:31:01.122Z,97850.31
2022-09-24T03:33:33.548Z,97843.25
2022-09-24T03:36:00.934Z,97850.50
2022-09-24T03:38:27.506Z,97851.41
2022-09-24T03:40:53.943Z,97845.13
2022-09-24T03:43:20.345Z,97846.84
2022-09-24T03:45:46.653Z,97846.13
2022-09-24T03:48:12.989Z,97844.38
2022-09-24T03:50:39.993Z,97842.50
2022-09-24T03:53:06.310Z,97837.41
2022-09-24T03:55:32.638Z,97836.31
2022-09-24T03:57:58.974Z,97831.47
2022-09-24T04:00:25.286Z,97838.78
2022-09-24T04:02:51.775Z,97833.59
2022-09-24T04:05:18.211Z,97840.75
2022-09-24T04:07:44.636Z,97838.22
2022-09-24T04:10:11.203Z,97834.19
2022-09-24T04:12:37.546Z,97840.38
2022-09-24T04:15:04.039Z,97829.19
2022-09-24T04:17:33.275Z,97834.53
2022-09-24T04:19:59.676Z,97829.19
2022-09-24T04:22:26.316Z,97833.16
2022-09-24T04:24:52.698Z,97834.75
2022-09-24T04:27:19.061Z,97824.66
2022-09-24T04:29:45.788Z,97824.66
2022-09-24T04:32:12.143Z,97837.03
2022-09-24T04:34:38.475Z,97830.91
2022-09-24T04:37:05.839Z,97834.59
2022-09-24T04:39:32.160Z,97838.28
2022-09-24T04:41:58.498Z,97836.44
2022-09-24T04:44:24.860Z,97833.88
2022-09-24T04:46:51.296Z,97835.72
2022-09-24T04:49:17.665Z,97834.84
2022-09-24T04:51:44.040Z,97831.25
2022-09-24T04:54:10.363Z,97839.22
2022-09-24T04:56:36.698Z,97839.34
2022-09-24T04:59:04.845Z,97844.31
2022-09-24T05:01:31.347Z,97841.72
2022-09-24T05:03:57.682Z,97848.00
2022-09-24T05:06:24.004Z,97845.16
2022-09-24T05:08:50.332Z,97838.81
2022-09-24T05:11:16.678Z,97839.31
2022-09-24T05:13:43.009Z,97836.91
2022-09-24T05:16:09.394Z,97830.13
2022-09-24T05:18:37.047Z,97838.47
2022-09-24T05:21:03.383Z,97839.50
2022-09-24T05:23:29.883Z,97833.34
2022-09-24T05:26:14.908Z,97833.84
2022-09-24T05:28:42.821Z,97831.63
2022-09-24T05:31:10.682Z,97837.44
2022-09-24T05:33:37.578Z,97834.94
2022-09-24T05:36:04.608Z,97842.59
2022-09-24T05:38:32.857Z,97837.81
2022-09-24T05:40:59.244Z,97841.19
2022-09-24T05:43:27.729Z,97842.16
2022-09-24T05:45:54.588Z,97833.53
2022-09-24T05:48:21.333Z,97842.66
2022-09-24T05:50:47.781Z,97842.91
2022-09-24T05:53:14.140Z,97842.09
2022-09-24T05:55:40.468Z,97848.53
2022-09-24T05:58:07.313Z,97848.91
2022-09-24T06:00:33.801Z,97853.53
2022-09-24T06:03:05.636Z,97855.19
2022-09-24T06:05:32.021Z,97851.06
2022-09-24T06:07:58.586Z,97851.91
2022-09-24T06:10:26.180Z,97857.06
2022-09-24T06:12:53.329Z,97857.72
2022-09-24T06:15:20.743Z,97852.59
2022-09-24T06:17:47.208Z,97862.94
2022-09-24T06:20:13.863Z,97865.63
2022-09-24T06:22:40.318Z,97858.16
2022-09-24T06:25:07.216Z,97862.63
2022-09-24T06:27:33.555Z,97857.97
2022-09-24T06:29:59.862Z,97859.00
2022-09-24T06:32:26.204Z,97860.63
2022-09-24T06:34:58.292Z,97861.00
2022-09-24T06:37:25.463Z,97858.72
2022-09-24T06:39:51.783Z,97855.19
2022-09-24T06:42:18.131Z,97851.97
2022-09-24T06:44:44.495Z,97859.66
2022-09-24T06:47:12.573Z,97865.66
2022-09-24T06:49:38.888Z,97868.13
2022-09-24T06:52:08.307Z,97871.41
2022-09-24T06:54:34.924Z,97859.47
2022-09-24T06:57:02.758Z,97863.94
2022-09-24T06:59:30.100Z,97855.69
2022-09-24T07:01:56.504Z,97863.00
2022-09-24T07:04:22.915Z,97868.22
2022-09-24T07:07:08.051Z,97867.41
2022-09-24T07:09:36.217Z,97869.38
2022-09-24T07:12:05.335Z,97868.50
2022-09-24T07:14:31.686Z,97872.59
2022-09-24T07:16:58.006Z,97870.91
2022-09-24T07:19:24.370Z,97880.22
2022-09-24T07:21:50.714Z,97877.22
2022-09-24T07:24:17.043Z,97884.78
2022-09-24T07:26:43.369Z,97885.84
2022-09-24T07:29:09.802Z,97883.97
2022-09-24T07:31:36.608Z,97889.88
2022-09-24T07:34:03.039Z,97895.69
2022-09-24T07:36:31.322Z,97885.81
2022-09-24T07:38:58.008Z,97890.03
2022-09-24T07:41:24.337Z,97899.53
2022-09-24T07:43:50.725Z,97897.88
2022-09-24T07:46:17.093Z,97897.72
2022-09-24T07:48:43.496Z,97899.31
2022-09-24T07:51:10.036Z,97906.22
2022-09-24T07:53:36.365Z,97905.63
2022-09-24T07:56:02.744Z,97909.00
2022-09-24T07:58:29.073Z,97917.88
2022-09-24T08:00:57.629Z,97912.47
2022-09-24T08:03:24.002Z,97911.91
2022-09-24T08:05:50.374Z,97917.56
2022-09-24T08:08:16.733Z,97910.19
2022-09-24T08:10:43.463Z,97916.50
2022-09-24T08:13:09.818Z,97923.41
2022-09-24T08:15:36.326Z,97921.91
2022-09-24T08:18:03.453Z,97923.06
2022-09-24T08:20:30.076Z,97918.66
2022-09-24T08:23:00.715Z,97919.66
2022-09-24T08:25:27.027Z,97920.09
2022-09-24T08:27:53.368Z,97909.63
2022-09-24T08:30:21.345Z,97917.19
2022-09-24T08:32:50.524Z,97914.41
2022-09-24T08:35:16.870Z,97923.78
2022-09-24T08:37:43.287Z,97909.88
2022-09-24T08:40:17.163Z,97919.06
2022-09-24T08:42:52.602Z,97923.19
2022-09-24T08:45:37.838Z,97919.72
2022-09-24T08:48:13.763Z,97924.09
2022-09-24T08:50:42.009Z,97932.16
2022-09-24T08:53:14.545Z,97922.63
2022-09-24T08:55:45.961Z,97929.13
2022-09-24T08:58:18.914Z,97932.16
2022-09-24T09:01:04.088Z,97938.28
2022-09-24T09:03:33.328Z,97941.94
2022-09-24T09:06:01.877Z,97934.25
2022-09-24T09:11:24.164Z,97934.34
2022-09-24T09:14:01.024Z,97944.91
2022-09-24T09:16:28.155Z,97940.00
2022-09-24T09:18:55.995Z,97945.63
2022-09-24T09:21:26.355Z,97946.25
2022-09-24T09:23:52.781Z,97933.13
2022-09-24T09:26:20.180Z,97932.81
2022-09-24T09:28:46.649Z,97935.41
2022-09-24T09:31:13.046Z,97941.38
2022-09-24T09:33:48.695Z,97942.56
2022-09-24T09:36:21.196Z,97941.16
2022-09-24T09:38:47.511Z,97950.06
2022-09-24T09:41:16.995Z,97944.59
2022-09-24T09:43:43.469Z,97939.94
2022-09-24T09:46:18.520Z,97940.81
2022-09-24T09:48:45.651Z,97940.03
2022-09-24T09:51:18.719Z,97938.81
2022-09-24T09:53:57.503Z,97940.81
2022-09-24T09:56:36.544Z,97934.72
2022-09-24T09:59:03.072Z,97944.00
2022-09-24T10:01:33.154Z,97939.47
2022-09-24T10:04:03.138Z,97937.97
2022-09-24T10:06:29.962Z,97932.34
2022-09-24T10:09:06.331Z,97936.66
2022-09-24T10:11:32.646Z,97934.72
2022-09-24T10:14:02.891Z,97944.16
2022-09-24T10:16:29.295Z,97943.06
2022-09-24T10:18:55.663Z,97944.84
2022-09-24T10:21:28.828Z,97936.13
2022-09-24T10:23:57.298Z,97937.44
2022-09-24T10:26:32.960Z,97938.78
2022-09-24T10:29:18.161Z,97935.19
2022-09-24T10:31:45.664Z,97935.69
2022-09-24T10:34:20.062Z,97927.34
2022-09-24T10:36:50.403Z,97936.88
2022-09-24T10:39:16.738Z,97931.25
2022-09-24T10:42:01.244Z,97933.22
2022-09-24T10:44:30.073Z,97939.97
2022-09-24T10:46:59.221Z,97941.56
2022-09-24T10:49:26.725Z,97944.41
2022-09-24T10:51:59.077Z,97944.78
2022-09-24T10:54:28.470Z,97937.91
2022-09-24T10:56:55.671Z,97943.16
2022-09-24T10:59:31.395Z,97950.75
2022-09-24T11:02:13.111Z,97941.91
2022-09-24T11:04:58.502Z,97951.47
2022-09-24T11:07:24.786Z,97941.91
2022-09-24T11:10:10.316Z,97948.75
2022-09-24T11:12:49.079Z,97938.78
2022-09-24T11:15:23.728Z,97937.88
2022-09-24T11:18:02.849Z,97948.97
2022-09-24T11:20:30.175Z,97944.66
2022-09-24T11:23:01.415Z,97937.94
2022-09-24T11:25:30.566Z,97945.56
2022-09-24T11:28:06.207Z,97945.56
2022-09-24T11:30:32.516Z,97948.69
2022-09-24T11:33:08.242Z,97940.63
2022-09-24T11:35:47.431Z,97947.38
2022-09-24T11:38:21.418Z,97946.16
2022-09-24T11:40:52.955Z,97941.88
2022-09-24T11:43:19.932Z,97935.84
2022-09-24T11:45:46.920Z,97944.28
2022-09-24T11:48:14.312Z,97945.50
2022-09-24T11:50:47.683Z,97945.88
2022-09-24T11:53:21.904Z,97950.75
2022-09-24T11:56:14.525Z,97949.06
2022-09-24T11:58:51.536Z,97949.38
2022-09-24T12:01:18.679Z,97938.94
2022-09-24T12:03:47.199Z,97938.53
2022-09-24T12:06:14.811Z,97942.53
2022-09-24T12:08:46.866Z,97947.34
2022-09-24T12:11:13.662Z,97940.16
2022-09-24T12:13:41.793Z,97946.25
2022-09-24T12:16:11.158Z,97947.50
2022-09-24T12:18:43.112Z,97935.59
2022-09-24T12:21:10.459Z,97932.47
2022-09-24T12:23:39.543Z,97937.66
2022-09-24T12:26:05.874Z,97930.81
2022-09-24T12:28:58.377Z,97927.69
2022-09-24T12:32:09.982Z,97930.22
2022-09-24T12:34:36.875Z,97940.69
2022-09-24T12:37:04.334Z,97942.69
2022-09-24T12:39:32.799Z,97935.84
2022-09-24T12:42:03.346Z,97939.03
2022-09-24T12:44:43.495Z,97930.66
2022-09-24T12:47:18.091Z,97935.88
2022-09-24T12:49:47.715Z,97934.66
2022-09-24T12:52:18.209Z,97927.09
2022-09-24T12:54:44.589Z,97924.66
2022-09-24T12:57:21.428Z,97931.50
2022-09-24T12:59:51.581Z,97932.69
2022-09-24T13:02:22.132Z,97913.06
2022-09-24T13:05:03.376Z,97920.66
2022-09-24T13:07:42.178Z,97928.25
2022-09-24T13:10:12.139Z,97920.69
2022-09-24T13:12:38.496Z,97922.28
2022-09-24T13:15:06.632Z,97916.28
2022-09-24T13:17:33.579Z,97913.09
2022-09-24T13:20:00.855Z,97917.47
2022-09-24T13:22:28.953Z,97916.28
2022-09-24T13:25:09.368Z,97919.47
2022-09-24T13:27:42.114Z,97919.88
2022-09-24T13:30:08.437Z,97925.88
2022-09-24T13:32:37.265Z,97915.50
2022-09-24T13:35:06.469Z,97911.06
2022-09-24T13:37:38.361Z,97922.25
2022-09-24T13:40:15.358Z,97914.66
2022-09-24T13:42:50.256Z,97915.88
2022-09-24T13:45:23.206Z,97918.28
2022-09-24T13:48:05.243Z,97921.88
2022-09-24T13:50:35.848Z,97921.06
2022-09-24T13:53:13.805Z,97920.66
2022-09-24T13:55:44.333Z,97918.66
2022-09-24T13:58:26.356Z,97917.06
2022-09-24T14:00:53.553Z,97919.06
2022-09-24T14:03:30.214Z,97912.25
2022-09-24T14:05:57.911Z,97917.31
2022-09-24T14:08:24.502Z,97917.28
2022-09-24T14:10:51.283Z,97912.56
2022-09-24T14:13:24.391Z,97914.53
2022-09-24T14:15:57.671Z,97909.78
2022-09-24T14:18:24.813Z,97917.38
2022-09-24T14:20:55.847Z,97922.63
2022-09-24T14:23:35.142Z,97918.63
2022-09-24T14:26:02.568Z,97917.81
2022-09-24T14:28:33.321Z,97907.44
2022-09-24T14:30:59.810Z,97911.00
2022-09-24T14:33:27.226Z,97914.19
2022-09-24T14:35:54.478Z,97906.56
2022-09-24T14:38:22.718Z,97910.94
2022-09-24T14:40:58.700Z,97912.50
2022-09-24T14:43:32.077Z,97908.09
2022-09-24T14:46:02.270Z,97914.50
2022-09-24T14:48:29.419Z,97920.47
2022-09-24T14:50:55.758Z,97915.66
2022-09-24T14:53:29.787Z,97912.81
2022-09-24T14:55:56.552Z,97917.16
2022-09-24T14:58:22.972Z,97923.63
2022-09-24T15:00:55.087Z,97918.81
2022-09-24T15:03:25.523Z,97903.66
2022-09-24T15:05:52.594Z,97911.69
2022-09-24T15:08:22.354Z,97911.63
2022-09-24T15:10:58.818Z,97914.41
2022-09-24T15:13:26.279Z,97910.06
2022-09-24T15:16:03.188Z,97917.22
2022-09-24T15:18:29.694Z,97919.91
2022-09-24T15:21:00.160Z,97918.63
2022-09-24T15:23:26.609Z,97916.22
2022-09-24T15:25:53.055Z,97913.09
2022-09-24T15:28:20.952Z,97918.28
2022-09-24T15:30:47.406Z,97917.03
2022-09-24T15:33:13.892Z,97919.47
2022-09-24T15:35:43.574Z,97916.88
2022-09-24T15:38:13.800Z,97913.63
2022-09-24T15:40:40.249Z,97911.47
2022-09-24T15:43:20.513Z,97915.00
2022-09-24T15:45:46.867Z,97914.25
2022-09-24T15:48:13.262Z,97919.16
2022-09-24T15:50:39.910Z,97914.34
2022-09-24T15:53:06.535Z,97911.16
2022-09-24T15:55:36.197Z,97913.53
2022-09-24T15:58:02.572Z,97912.59
2022-09-24T16:00:28.911Z,97908.22
2022-09-24T16:02:55.771Z,97912.97
2022-09-24T16:05:22.172Z,97916.06
2022-09-24T16:07:49.094Z,97917.69
2022-09-24T16:10:15.607Z,97918.47
2022-09-24T16:12:42.126Z,97920.97
2022-09-24T16:15:08.935Z,97923.31
2022-09-24T16:17:35.353Z,97923.63
2022-09-24T16:20:02.004Z,97924.34
2022-09-24T16:22:28.568Z,97921.56
2022-09-24T16:24:55.079Z,97922.81
2022-09-24T16:27:21.457Z,97923.22
2022-09-24T16:29:47.827Z,97918.41
2022-09-24T16:32:14.360Z,97923.38
2022-09-24T16:34:41.026Z,97924.31
2022-09-24T16:37:07.633Z,97923.94
2022-09-24T16:39:34.092Z,97921.84
2022-09-24T16:42:01.145Z,97925.06
2022-09-24T16:44:27.499Z,97925.06
2022-09-24T16:46:53.888Z,97926.19
2022-09-24T16:49:22.069Z,97928.53
2022-09-24T16:51:48.567Z,97928.72
2022-09-24T16:54:14.992Z,97921.53
2022-09-24T16:56:41.703Z,97928.44
2022-09-24T16:59:09.239Z,97921.50
2022-09-24T17:01:35.769Z,97929.06
2022-09-24T17:04:02.201Z,97932.50
2022-09-24T17:06:29.628Z,97931.69
2022-09-24T17:09:14.895Z,97935.00
2022-09-24T17:11:41.872Z,97931.91
2022-09-24T17:14:08.654Z,97922.38
2022-09-24T17:16:35.024Z,97929.56
2022-09-24T17:19:01.569Z,97930.03
2022-09-24T17:21:27.979Z,97932.88
2022-09-24T17:23:54.362Z,97932.03
2022-09-24T17:26:21.695Z,97931.53
2022-09-24T17:28:48.641Z,97926.06
2022-09-24T17:31:15.756Z,97928.34
2022-09-24T17:33:43.849Z,97935.47
2022-09-24T17:36:11.068Z,97928.28
2022-09-24T17:38:37.457Z,97926.94
2022-09-24T17:41:07.526Z,97931.13
2022-09-24T17:43:34.514Z,97924.50
2022-09-24T17:46:03.336Z,97932.13
2022-09-24T17:48:30.806Z,97924.75
2022-09-24T17:50:57.489Z,97935.72
2022-09-24T17:53:24.161Z,97930.03
2022-09-24T17:55:50.788Z,97933.22
2022-09-24T17:58:17.425Z,97929.47
2022-09-24T18:00:44.199Z,97929.94
2022-09-24T18:03:10.687Z,97927.41
2022-09-24T18:05:37.829Z,97933.41
2022-09-24T18:08:04.383Z,97937.09
2022-09-24T18:10:30.739Z,97930.34
2022-09-24T18:12:59.089Z,97932.47
2022-09-24T18:15:25.910Z,97939.50
2022-09-24T18:17:53.005Z,97933.13
2022-09-24T18:20:20.035Z,97934.28
2022-09-24T18:22:46.407Z,97935.78
2022-09-24T18:25:13.620Z,97938.25
2022-09-24T18:27:40.398Z,97936.38
2022-09-24T18:30:07.646Z,97943.63
2022-09-24T18:32:34.715Z,97943.31
2022-09-24T18:35:01.486Z,97949.09
2022-09-24T18:37:27.833Z,97948.41
2022-09-24T18:39:54.220Z,97941.50
2022-09-24T18:42:20.566Z,97943.53
2022-09-24T18:44:47.117Z,97947.56
2022-09-24T18:47:14.727Z,97954.97
2022-09-24T18:49:41.619Z,97944.69
2022-09-24T18:52:08.045Z,97949.00
2022-09-24T18:54:34.510Z,97953.31
2022-09-24T18:57:00.861Z,97948.72
2022-09-24T18:59:29.089Z,97949.81
2022-09-24T19:01:55.530Z,97952.22
2022-09-24T19:04:23.632Z,97961.59
2022-09-24T19:06:50.681Z,97950.50
2022-09-24T19:09:17.439Z,97952.91
2022-09-24T19:11:45.537Z,97962.78
2022-09-24T19:14:18.071Z,97970.78
2022-09-24T19:16:44.795Z,97960.19
2022-09-24T19:19:11.437Z,97970.59
2022-09-24T19:21:37.997Z,97968.69
2022-09-24T19:24:05.229Z,97971.81
2022-09-24T19:26:32.424Z,97975.41
2022-09-24T19:28:58.932Z,97975.59
2022-09-24T19:31:25.318Z,97967.25
2022-09-24T19:33:51.996Z,97970.47
2022-09-24T19:36:18.389Z,97971.91
2022-09-24T19:38:44.967Z,97974.25
2022-09-24T19:41:13.313Z,97974.13
2022-09-24T19:43:40.025Z,97974.94
2022-09-24T19:46:07.206Z,97973.19
2022-09-24T19:48:36.370Z,97969.59
2022-09-24T19:51:03.758Z,97966.75
2022-09-24T19:53:31.476Z,97967.41
2022-09-24T19:55:58.368Z,97974.06
2022-09-24T19:58:25.318Z,97974.84
2022-09-24T20:00:52.222Z,97969.19
2022-09-24T20:03:19.214Z,97966.34
2022-09-24T20:05:45.587Z,97968.91
2022-09-24T20:08:12.542Z,97964.31
2022-09-24T20:10:39.252Z,97962.91
2022-09-24T20:13:05.809Z,97956.75
2022-09-24T20:15:32.226Z,97957.16
2022-09-24T20:17:58.657Z,97963.66
2022-09-24T20:20:25.252Z,97961.69
2022-09-24T20:22:51.689Z,97957.56
2022-09-24T20:25:18.056Z,97953.94
2022-09-24T20:27:55.317Z,97958.38
2022-09-24T20:30:24.632Z,97955.59
2022-09-24T20:32:51.328Z,97966.50
2022-09-24T20:35:17.672Z,97952.44
2022-09-24T20:37:44.801Z,97969.19
2022-09-24T20:40:11.281Z,97961.69
2022-09-24T20:42:38.336Z,97966.78
2022-09-24T20:45:08.902Z,97959.03
2022-09-24T20:47:38.953Z,97957.50
2022-09-24T20:50:05.683Z,97961.69
2022-09-24T20:52:32.606Z,97964.41
2022-09-24T20:54:58.968Z,97964.97
2022-09-24T20:57:25.963Z,97960.94
2022-09-24T20:59:52.442Z,97963.41
2022-09-24T21:02:18.883Z,97959.81
2022-09-24T21:04:45.317Z,97965.44
2022-09-24T21:07:11.669Z,97960.31
2022-09-24T21:09:38.012Z,97959.41
2022-09-24T21:12:04.459Z,97968.97
2022-09-24T21:14:30.802Z,97966.63
2022-09-24T21:16:57.157Z,97958.69
2022-09-24T21:19:24.326Z,97962.59
2022-09-24T21:21:51.228Z,97962.72
2022-09-24T21:24:17.868Z,97956.28
2022-09-24T21:26:45.276Z,97958.28
2022-09-24T21:29:16.702Z,97962.50
2022-09-24T21:31:44.118Z,97969.03
2022-09-24T21:34:10.715Z,97954.69
2022-09-24T21:36:43.749Z,97959.41
2022-09-24T21:39:20.287Z,97963.84
2022-09-24T21:41:49.800Z,97964.19
2022-09-24T21:44:17.659Z,97961.31
2022-09-24T21:46:45.011Z,97967.75
2022-09-24T21:49:11.867Z,97968.13
2022-09-24T21:51:38.435Z,97966.25
2022-09-24T21:54:05.679Z,97967.41
2022-09-24T21:56:32.279Z,97973.72
2022-09-24T21:58:58.707Z,97969.38
2022-09-24T22:01:29.164Z,97973.78
2022-09-24T22:03:56.417Z,97974.28
2022-09-24T22:06:23.175Z,97985.00
2022-09-24T22:08:50.008Z,97981.41
2022-09-24T22:11:17.917Z,97979.34
2022-09-24T22:13:45.048Z,97974.50
2022-09-24T22:16:11.814Z,97974.94
2022-09-24T22:18:38.321Z,97971.13
2022-09-24T22:21:05.740Z,97964.84
2022-09-24T22:23:32.140Z,97961.69
2022-09-24T22:25:58.572Z,97964.41
2022-09-24T22:28:25.342Z,97966.38
2022-09-24T22:30:55.822Z,97968.00
2022-09-24T22:33:41.158Z,97966.31
2022-09-24T22:36:07.628Z,97966.31
2022-09-24T22:38:34.115Z,97967.50
2022-09-24T22:41:00.861Z,97961.19
2022-09-24T22:43:28.589Z,97960.31
2022-09-24T22:45:58.526Z,97957.13
2022-09-24T22:48:25.035Z,97964.72
2022-09-24T22:50:51.431Z,97963.91
2022-09-24T22:53:17.767Z,97962.38
2022-09-24T22:55:44.172Z,97960.44
2022-09-24T22:58:10.784Z,97965.50
2022-09-24T23:00:37.158Z,97955.19
2022-09-24T23:03:04.019Z,97961.13
2022-09-24T23:05:33.781Z,97962.78
2022-09-24T23:08:00.129Z,97962.25
2022-09-24T23:10:28.800Z,97957.66
2022-09-24T23:12:55.140Z,97964.41
2022-09-24T23:15:21.610Z,97958.84
2022-09-24T23:17:48.515Z,97967.94
2022-09-24T23:20:15.035Z,97956.38
2022-09-24T23:22:41.370Z,97966.00
2022-09-24T23:25:07.932Z,97962.28
2022-09-24T23:27:34.252Z,97956.69
2022-09-24T23:30:01.520Z,97959.91
2022-09-24T23:32:27.986Z,97959.91
2022-09-24T23:34:54.666Z,97958.22
2022-09-24T23:37:20.993Z,97961.16
2022-09-24T23:39:47.661Z,97960.66
2022-09-24T23:42:14.397Z,97967.50
2022-09-24T23:44:41.787Z,97967.50
2022-09-24T23:47:08.125Z,97961.94
2022-09-24T23:49:34.506Z,97968.94
2022-09-24T23:52:00.958Z,97959.34
2022-09-24T23:54:28.299Z,97965.41
2022-09-24T23:56:56.037Z,97966.88
2022-09-24T23:59:22.498Z,97954.66
